YEUL weather

Eulalia Airport
New South Wales, Australia

Public forecast

Using degrees Celsius for public forecast. Weather courtesy of forecast.io.

METAR (pilot weather report)

Closest report is Coonamble Airport, 10.8 nm (19.9 km) ENE. Retrieved 2019/09/24 08:00 UTC (15 minutes ago):

YCNM 240800Z AUTO 20010KT //// // ////// 19/M05 Q1025

TAF (pilot weather forecast)

Closest forecast is Dubbo City Regional Airport, 73.9 nm (136.9 km) SSE. Retrieved 2019/09/24 06:36 UTC (2 hours ago):

TAF YSDU 240503Z 2406/2424 21010KT CAVOK FM241000 16008KT CAVOK